Time;durP1;ratioP1;P1;durP2;ratioP2;P2;SDS_P1;SDS_P2;PMS_P1;PMS_P2;Temp;Humidity;BMP_temperature;BMP_pressure;BME280_temperature;BME280_humidity;BME280_pressure;Samples;Min_cycle;Max_cycle;Signal;HPM_P1;HPM_P2
2022/11/27 00:00:51;;;;;;;;;16.00;12.00;;;;;8.91;86.14;102112.38;5001883;28;45453;-76
2022/11/27 00:03:16;;;;;;;;;14.25;12.00;;;;;8.82;86.26;102088.72;4985071;28;45295;-75
2022/11/27 00:05:54;;;;;;;;;11.25;11.25;;;;;8.41;86.01;102020.72;4993362;28;45590;-77
2022/11/27 00:08:19;;;;;;;;;9.25;7.00;;;;;8.95;86.24;102111.38;4993919;28;46452;-77
2022/11/27 00:10:44;;;;;;;;;18.00;14.00;;;;;8.75;85.84;102072.91;4988292;28;45379;-76
2022/11/27 00:13:10;;;;;;;;;12.75;11.75;;;;;8.04;85.53;101946.50;4984013;28;45338;-77
2022/11/27 00:15:35;;;;;;;;;9.00;9.00;;;;;8.70;86.32;102064.19;4993938;28;45419;-69
2022/11/27 00:18:00;;;;;;;;;17.25;12.00;;;;;8.90;86.74;102097.31;4992790;28;45447;-71
2022/11/27 00:20:26;;;;;;;;;12.00;9.50;;;;;8.34;85.60;101997.88;4993015;28;45795;-70
2022/11/27 00:22:51;;;;;;;;;9.25;9.25;;;;;8.89;86.46;102084.94;4979397;28;45774;-71
2022/11/27 00:25:16;;;;;;;;;11.00;10.50;;;;;8.92;86.80;102079.50;4993592;28;45502;-70
2022/11/27 00:27:42;;;;;;;;;10.75;8.50;;;;;8.94;86.12;102076.81;4996940;28;46190;-70
2022/11/27 00:30:07;;;;;;;;;10.25;10.25;;;;;8.77;86.24;102043.59;4996747;28;45361;-71
2022/11/27 00:32:33;;;;;;;;;12.50;11.00;;;;;8.80;86.65;102054.16;4996706;28;45309;-70
2022/11/27 00:34:58;;;;;;;;;10.00;8.50;;;;;8.74;86.40;102044.56;4996805;28;45522;-70
2022/11/27 00:37:24;;;;;;;;;11.00;10.75;;;;;8.87;86.29;102060.19;4988190;28;46566;-70
2022/11/27 00:39:49;;;;;;;;;14.50;11.50;;;;;8.87;86.00;102031.75;4996696;28;45431;-70
2022/11/27 00:42:15;;;;;;;;;11.00;11.00;;;;;9.00;85.97;102058.88;4996945;28;45354;-70
2022/11/27 00:44:40;;;;;;;;;11.50;9.25;;;;;8.77;86.04;102034.75;4996540;28;45407;-70
2022/11/27 00:47:06;;;;;;;;;15.25;14.75;;;;;8.92;86.05;102032.50;4996431;28;45525;-70
2022/11/27 00:49:31;;;;;;;;;12.50;10.25;;;;;8.89;85.46;102019.28;4996924;28;45430;-70
2022/11/27 00:51:56;;;;;;;;;12.00;10.25;;;;;8.83;85.79;102021.28;4997056;28;45507;-70
2022/11/27 00:54:22;;;;;;;;;13.25;11.00;;;;;8.92;85.64;102060.88;4996637;28;45437;-70
2022/11/27 00:56:47;;;;;;;;;6.75;6.00;;;;;8.70;85.85;102021.63;4996593;28;46492;-70
2022/11/27 00:59:12;;;;;;;;;14.00;14.00;;;;;8.84;86.25;102029.19;4996793;28;45472;-70
2022/11/27 01:01:40;;;;;;;;;17.00;16.50;;;;;8.96;86.23;102043.91;4983499;28;45850;-70
2022/11/27 01:04:09;;;;;;;;;12.75;11.50;;;;;8.87;86.22;102029.09;4993536;28;45501;-78
2022/11/27 01:06:36;;;;;;;;;15.50;15.50;;;;;8.88;86.52;102029.97;4982011;28;46252;-79
2022/11/27 01:09:01;;;;;;;;;13.75;11.25;;;;;8.68;86.39;101996.88;4997032;28;45311;-79
2022/11/27 01:11:30;;;;;;;;;14.00;12.25;;;;;8.87;86.23;102020.25;4998900;28;45437;-79
2022/11/27 01:13:59;;;;;;;;;11.50;9.75;;;;;8.87;86.96;102022.91;4979986;28;45466;-79
2022/11/27 01:16:27;;;;;;;;;12.00;9.50;;;;;8.85;86.33;102020.28;4998683;28;46339;-78
2022/11/27 01:18:56;;;;;;;;;13.25;13.00;;;;;8.85;87.07;102024.75;4996759;28;45479;-79
2022/11/27 01:21:23;;;;;;;;;15.00;12.25;;;;;8.89;86.57;102026.38;4999550;28;45370;-79
2022/11/27 01:23:49;;;;;;;;;12.50;11.50;;;;;8.89;86.99;102021.06;4982103;28;45338;-80
2022/11/27 01:26:16;;;;;;;;;14.25;12.50;;;;;8.95;85.79;102033.28;4993057;28;45494;-79
2022/11/27 01:28:42;;;;;;;;;10.00;10.00;;;;;8.85;85.96;102022.09;4987539;28;45288;-80
2022/11/27 01:31:23;;;;;;;;;9.75;8.75;;;;;8.96;86.40;102033.28;4989380;28;45422;-78
2022/11/27 01:33:54;;;;;;;;;14.50;12.75;;;;;9.00;85.85;102034.03;4996518;28;45253;-79
2022/11/27 01:36:20;;;;;;;;;11.00;10.25;;;;;9.07;85.72;102032.94;4996137;28;46310;-79
2022/11/27 01:38:45;;;;;;;;;13.25;13.25;;;;;9.09;85.36;102028.41;4995527;28;45551;-78
2022/11/27 01:41:19;;;;;;;;;11.25;9.50;;;;;9.02;85.11;102027.72;4987069;28;45363;-79
2022/11/27 01:43:49;;;;;;;;;11.50;9.25;;;;;9.00;84.99;102021.59;4990834;28;45481;-79
2022/11/27 01:46:33;;;;;;;;;12.00;11.00;;;;;9.02;85.21;102024.22;4993020;28;48515;-79
2022/11/27 01:49:24;;;;;;;;;12.75;10.75;;;;;9.05;84.96;102024.97;4995751;28;45286;-79
2022/11/27 01:52:08;;;;;;;;;11.25;10.25;;;;;9.06;84.84;102020.53;4996123;28;45567;-79
2022/11/27 01:54:40;;;;;;;;;11.25;10.25;;;;;9.07;84.73;102016.97;4976249;28;45663;-79
2022/11/27 01:57:15;;;;;;;;;16.00;11.50;;;;;9.02;84.51;102011.75;4984939;28;47171;-79
2022/11/27 01:59:41;;;;;;;;;10.75;10.75;;;;;9.03;84.48;102008.19;4995428;28;45480;-78
2022/11/27 02:02:07;;;;;;;;;14.50;9.00;;;;;9.02;84.74;102006.44;4996119;28;45477;-78
2022/11/27 02:04:32;;;;;;;;;8.50;8.00;;;;;9.12;84.81;102001.69;4995688;28;45427;-77
2022/11/27 02:06:58;;;;;;;;;12.25;10.00;;;;;9.14;84.14;101999.84;4996131;28;46023;-79
2022/11/27 02:09:25;;;;;;;;;13.00;11.00;;;;;9.06;84.51;102005.41;4996481;28;45414;-79
2022/11/27 02:12:06;;;;;;;;;10.50;9.75;;;;;9.04;84.32;102001.94;4978583;28;45502;-78
2022/11/27 02:14:53;;;;;;;;;11.25;10.50;;;;;9.02;84.52;102000.25;4996157;28;45368;-79
2022/11/27 02:17:32;;;;;;;;;10.75;10.00;;;;;9.02;84.65;102001.13;4996247;28;46230;-78
2022/11/27 02:20:01;;;;;;;;;11.75;9.25;;;;;9.01;84.73;101986.06;4996176;28;45392;-79
2022/11/27 02:22:56;;;;;;;;;8.50;8.50;;;;;8.97;85.12;101976.44;4996023;28;45305;-78
2022/11/27 02:25:40;;;;;;;;;9.50;9.50;;;;;8.90;84.63;101972.25;4996495;28;45306;-79
2022/11/27 02:28:23;;;;;;;;;10.00;8.00;;;;;8.88;84.67;101979.41;4995911;28;45353;-78
2022/11/27 02:30:56;;;;;;;;;10.00;9.25;;;;;8.91;85.03;101985.50;4995883;28;45328;-80
2022/11/27 02:33:22;;;;;;;;;9.25;8.00;;;;;8.98;84.67;101980.00;4996227;28;45404;-78
2022/11/27 02:36:04;;;;;;;;;8.25;7.00;;;;;8.62;84.27;101938.53;4995936;28;45450;-78
2022/11/27 02:39:06;;;;;;;;;9.00;8.00;;;;;8.94;84.15;101973.88;4996100;28;47153;-78
2022/11/27 02:42:12;;;;;;;;;8.75;7.00;;;;;8.94;84.35;101979.22;4962180;28;45387;-78
2022/11/27 02:44:45;;;;;;;;;8.25;8.25;;;;;8.83;84.46;101954.75;4896768;29;45349;-78
2022/11/27 02:47:12;;;;;;;;;10.25;8.50;;;;;8.98;84.19;101972.88;4897026;29;45630;-79
2022/11/27 02:49:40;;;;;;;;;7.00;6.50;;;;;8.99;84.41;101966.63;4896832;29;47159;-78
2022/11/27 02:52:06;;;;;;;;;10.75;9.00;;;;;8.97;84.02;101960.47;4897009;29;45458;-78
2022/11/27 02:54:33;;;;;;;;;6.75;6.75;;;;;8.86;84.00;101946.66;4896786;29;45377;-79
2022/11/27 02:57:03;;;;;;;;;9.75;8.50;;;;;8.81;84.37;101948.59;4896682;29;45476;-78
2022/11/27 02:59:32;;;;;;;;;8.00;6.75;;;;;8.85;84.76;101961.72;4896949;29;46227;-79
2022/11/27 03:02:04;;;;;;;;;6.25;6.00;;;;;8.86;85.03;101957.31;4881295;29;45395;-78
2022/11/27 03:04:36;;;;;;;;;10.00;8.00;;;;;8.94;85.35;101957.91;4896636;29;45398;-78
2022/11/27 03:07:07;;;;;;;;;9.75;6.75;;;;;8.99;84.67;101944.44;4896874;29;45545;-78
2022/11/27 03:09:34;;;;;;;;;8.00;8.00;;;;;9.05;84.55;101952.22;4896684;29;46279;-76
2022/11/27 03:12:01;;;;;;;;;10.00;7.50;;;;;8.98;84.04;101940.06;4896498;29;45491;-78
2022/11/27 03:14:27;;;;;;;;;11.75;10.00;;;;;8.98;83.98;101934.75;4896949;29;45425;-78
2022/11/27 03:17:01;;;;;;;;;6.50;6.50;;;;;8.96;84.54;101926.81;4896703;29;45426;-78
2022/11/27 03:19:41;;;;;;;;;9.00;8.75;;;;;8.94;84.26;101925.97;4965620;28;48448;-79
2022/11/27 03:22:07;;;;;;;;;9.75;8.00;;;;;8.98;84.68;101916.13;4995501;28;45353;-78
2022/11/27 03:24:34;;;;;;;;;7.25;7.25;;;;;8.83;84.10;101889.09;4995237;28;45299;-78
2022/11/27 03:27:01;;;;;;;;;11.50;9.00;;;;;8.95;84.77;101914.44;4995242;28;45309;-78
2022/11/27 03:29:35;;;;;;;;;10.50;8.50;;;;;8.94;84.84;101907.34;4988560;28;48768;-78
2022/11/27 03:32:02;;;;;;;;;13.25;8.00;;;;;8.94;84.57;101904.69;4994767;28;45402;-77
2022/11/27 03:34:27;;;;;;;;;11.25;8.00;;;;;8.98;84.68;101894.81;4995394;28;45360;-78
2022/11/27 03:36:54;;;;;;;;;8.75;8.75;;;;;8.94;84.26;101896.72;4995021;28;45325;-78
2022/11/27 03:39:20;;;;;;;;;11.50;8.00;;;;;8.90;84.82;101884.44;4977221;28;47620;-78
2022/11/27 03:41:45;;;;;;;;;6.25;6.25;;;;;8.89;84.67;101882.69;4994923;28;45618;-79
2022/11/27 03:44:32;;;;;;;;;8.00;7.00;;;;;8.83;84.81;101885.56;4994946;28;45418;-78
2022/11/27 03:47:28;;;;;;;;;10.00;7.75;;;;;8.84;84.39;101879.31;4995073;28;45344;-77
2022/11/27 03:49:56;;;;;;;;;7.00;7.00;;;;;8.86;85.43;101883.66;4995006;28;46772;-75
2022/11/27 03:52:33;;;;;;;;;10.50;8.25;;;;;8.88;84.89;101872.94;4994936;28;45579;-76
2022/11/27 03:55:07;;;;;;;;;8.00;8.00;;;;;8.85;85.25;101886.38;4994826;28;45399;-77
2022/11/27 03:57:40;;;;;;;;;4.50;4.50;;;;;8.93;84.56;101881.66;4995218;28;45424;-79
2022/11/27 04:00:08;;;;;;;;;8.75;7.00;;;;;8.91;84.99;101880.84;4995126;28;47354;-80
2022/11/27 04:02:43;;;;;;;;;12.00;8.75;;;;;8.94;84.74;101894.03;4998315;28;45518;-80
2022/11/27 04:05:11;;;;;;;;;7.00;6.75;;;;;9.03;85.06;101891.06;4998222;28;45442;-80
2022/11/27 04:07:36;;;;;;;;;9.50;6.50;;;;;9.07;84.81;101890.03;4998527;28;45375;-79
2022/11/27 04:10:03;;;;;;;;;8.25;6.50;;;;;9.00;84.56;101883.19;4997982;28;45375;-79
2022/11/27 04:12:29;;;;;;;;;0.75;0.50;;;;;9.05;84.70;101888.34;4998694;28;45333;-80
2022/11/27 04:14:54;;;;;;;;;8.00;8.00;;;;;8.68;84.82;101821.31;4964733;28;45485;-80
2022/11/27 04:17:19;;;;;;;;;12.25;10.00;;;;;9.08;84.86;101882.91;5001253;28;45320;-80
2022/11/27 04:19:45;;;;;;;;;10.00;8.25;;;;;9.13;84.96;101877.44;5002221;28;45423;-80
2022/11/27 04:22:10;;;;;;;;;8.00;5.75;;;;;9.12;84.98;101873.91;4986567;28;45343;-79
2022/11/27 04:24:35;;;;;;;;;6.00;6.00;;;;;9.08;85.80;101870.50;5003427;28;45217;-80
2022/11/27 04:27:01;;;;;;;;;10.75;9.25;;;;;9.07;86.55;101873.22;4998449;28;45356;-80
2022/11/27 04:29:26;;;;;;;;;7.00;5.75;;;;;9.00;86.56;101856.59;4998080;28;45443;-79
2022/11/27 04:31:51;;;;;;;;;6.75;6.75;;;;;9.02;86.67;101867.19;4998264;28;45487;-80
2022/11/27 04:34:17;;;;;;;;;9.00;7.50;;;;;8.97;86.88;101863.81;4998309;28;45380;-79
2022/11/27 04:36:42;;;;;;;;;7.50;6.75;;;;;8.97;87.14;101858.47;4998359;28;45349;-80
2022/11/27 04:39:07;;;;;;;;;9.25;8.00;;;;;8.92;86.79;101862.16;4997575;28;45431;-80
2022/11/27 04:41:33;;;;;;;;;8.00;8.00;;;;;8.86;86.97;101842.88;4997926;28;45370;-80
2022/11/27 04:43:58;;;;;;;;;9.75;9.75;;;;;8.74;87.50;101829.06;4980620;28;45653;-80
2022/11/27 04:46:23;;;;;;;;;8.50;8.25;;;;;8.74;87.72;101831.72;4997476;28;45352;-80
2022/11/27 04:48:49;;;;;;;;;9.00;9.00;;;;;8.74;87.95;101834.38;4997814;28;47234;-80
2022/11/27 04:51:14;;;;;;;;;5.75;5.00;;;;;8.75;88.54;101828.16;4995703;28;45333;-78
2022/11/27 04:53:39;;;;;;;;;10.25;7.50;;;;;8.77;88.13;101819.25;4986335;28;45402;-79
2022/11/27 04:56:05;;;;;;;;;8.25;7.00;;;;;8.47;88.29;101784.81;4977963;28;45405;-80
2022/11/27 04:58:30;;;;;;;;;7.00;7.00;;;;;8.74;88.01;101820.22;4985082;28;46345;-79
2022/11/27 05:00:56;;;;;;;;;14.75;9.00;;;;;8.74;88.59;101809.59;4976892;28;45404;-79
2022/11/27 05:03:21;;;;;;;;;5.75;5.75;;;;;8.67;87.87;101808.91;4978176;28;45320;-79
2022/11/27 05:05:54;;;;;;;;;6.50;6.50;;;;;8.71;88.62;101818.53;4978069;28;45418;-79
2022/11/27 05:08:19;;;;;;;;;6.75;6.75;;;;;8.74;88.53;101799.78;4986823;28;45384;-79
2022/11/27 05:10:45;;;;;;;;;8.00;5.25;;;;;8.68;87.82;101796.50;4977854;28;45334;-79
2022/11/27 05:13:11;;;;;;;;;7.50;7.50;;;;;8.45;88.29;101757.34;4975206;28;45441;-79
2022/11/27 05:15:36;;;;;;;;;11.75;8.00;;;;;8.73;88.32;101798.09;4977715;28;45314;-79
2022/11/27 05:18:01;;;;;;;;;8.25;6.75;;;;;8.29;88.60;101717.13;4980196;28;45683;-79
2022/11/27 05:20:27;;;;;;;;;10.75;8.25;;;;;8.75;88.71;101795.38;4985882;28;45364;-76
2022/11/27 05:22:52;;;;;;;;;7.75;7.50;;;;;8.74;87.81;101793.63;4977250;28;45310;-78
2022/11/27 05:25:17;;;;;;;;;8.00;7.75;;;;;8.31;87.98;101726.78;4977170;28;45392;-78
2022/11/27 05:27:43;;;;;;;;;7.00;5.00;;;;;8.74;88.39;101802.44;4979979;28;46139;-79
2022/11/27 05:30:08;;;;;;;;;8.25;6.75;;;;;8.71;87.79;101810.56;4997113;28;45308;-78
2022/11/27 05:32:34;;;;;;;;;6.25;5.25;;;;;8.71;87.98;101807.03;4997236;28;45360;-79
2022/11/27 05:34:59;;;;;;;;;8.25;7.00;;;;;8.74;88.19;101799.78;4979577;28;45369;-79
2022/11/27 05:37:25;;;;;;;;;12.00;8.00;;;;;8.73;88.63;101792.75;4996347;28;45986;-78
2022/11/27 05:39:50;;;;;;;;;11.25;8.75;;;;;8.81;89.75;101794.28;4993012;28;45562;-78
2022/11/27 05:42:15;;;;;;;;;10.00;6.25;;;;;8.82;89.37;101790.69;4985959;28;45346;-79
2022/11/27 05:44:41;;;;;;;;;8.25;8.25;;;;;8.82;89.60;101788.88;4994026;28;45356;-79
2022/11/27 05:47:06;;;;;;;;;11.75;8.75;;;;;8.82;89.10;101782.72;4996630;28;46344;-79
2022/11/27 05:49:31;;;;;;;;;9.00;9.00;;;;;8.83;89.00;101795.09;4996707;28;45296;-79
2022/11/27 05:51:57;;;;;;;;;8.25;8.25;;;;;8.64;89.23;101761.16;4979219;28;45778;-79
2022/11/27 05:54:22;;;;;;;;;8.25;8.00;;;;;8.31;89.58;101696.69;4996718;28;45399;-79
2022/11/27 05:56:47;;;;;;;;;10.50;7.75;;;;;8.81;88.77;101788.94;4978912;28;47240;-79
2022/11/27 05:59:13;;;;;;;;;9.25;7.50;;;;;8.80;89.47;101781.88;4996459;28;45396;-78
2022/11/27 06:01:39;;;;;;;;;10.50;8.25;;;;;8.79;89.68;101778.38;4996546;28;45419;-78
2022/11/27 06:04:04;;;;;;;;;4.00;4.00;;;;;8.78;89.50;101773.09;4996757;28;45419;-78
2022/11/27 06:06:29;;;;;;;;;10.25;10.25;;;;;8.54;89.94;101743.78;4978185;28;45426;-78
2022/11/27 06:08:55;;;;;;;;;10.00;8.50;;;;;8.73;89.99;101770.59;4996611;28;45370;-78
2022/11/27 06:11:21;;;;;;;;;8.25;6.50;;;;;8.71;89.68;101775.97;4996348;28;45375;-78
2022/11/27 06:13:48;;;;;;;;;9.25;8.00;;;;;8.73;90.03;101784.78;4996766;28;45549;-78
2022/11/27 06:16:17;;;;;;;;;11.00;10.00;;;;;8.74;90.23;101781.16;4996116;28;45578;-78
2022/11/27 06:18:42;;;;;;;;;10.00;7.50;;;;;8.80;90.66;101771.25;4996289;28;45367;-79
2022/11/27 06:21:10;;;;;;;;;3.50;3.50;;;;;8.79;89.94;101769.53;4996238;28;45459;-79
2022/11/27 06:23:36;;;;;;;;;13.50;8.00;;;;;8.81;89.79;101765.00;4996036;28;45376;-78
2022/11/27 06:26:12;;;;;;;;;7.75;7.25;;;;;8.81;89.73;101763.19;4996040;28;47280;-79
2022/11/27 06:28:38;;;;;;;;;10.00;8.00;;;;;8.81;89.83;101759.69;4978390;28;46477;-79
2022/11/27 06:31:09;;;;;;;;;15.00;11.00;;;;;8.82;90.15;101756.09;4996383;28;45339;-79
2022/11/27 06:33:35;;;;;;;;;7.25;7.25;;;;;8.63;90.26;101708.00;4996020;28;45343;-78
2022/11/27 06:36:01;;;;;;;;;11.75;9.00;;;;;8.79;89.30;101740.25;4977379;28;46283;-76
2022/11/27 06:38:27;;;;;;;;;7.75;7.00;;;;;8.79;89.27;101745.59;4996211;28;45492;-77
2022/11/27 06:40:52;;;;;;;;;10.25;9.25;;;;;8.83;90.20;101741.88;4996093;28;45459;-77
2022/11/27 06:43:18;;;;;;;;;8.25;8.25;;;;;8.82;89.49;101743.66;4995974;28;45341;-78
2022/11/27 06:45:43;;;;;;;;;7.75;7.75;;;;;8.77;89.72;101740.28;4974024;28;45402;-79
2022/11/27 06:48:08;;;;;;;;;4.75;3.75;;;;;8.70;90.12;101731.66;4983322;28;48180;-79
2022/11/27 06:50:34;;;;;;;;;23.75;22.25;;;;;8.65;90.08;101725.66;4976033;28;45499;-78
2022/11/27 06:52:59;;;;;;;;;55.00;43.00;;;;;8.66;90.20;101732.69;4976431;28;45336;-78
2022/11/27 06:55:24;;;;;;;;;8.25;8.25;;;;;8.65;89.76;101728.31;4992185;28;46533;-79
2022/11/27 06:57:50;;;;;;;;;11.00;10.00;;;;;8.67;90.18;101737.09;4995016;28;45602;-79
2022/11/27 07:00:17;;;;;;;;;34.75;30.50;;;;;8.67;90.85;101737.09;4977511;28;45359;-78
2022/11/27 07:02:42;;;;;;;;;8.75;6.25;;;;;8.62;91.29;101724.88;4978404;28;45463;-78
2022/11/27 07:05:08;;;;;;;;;24.50;18.25;;;;;8.69;92.06;101745.03;4994759;28;45312;-78
2022/11/27 07:07:33;;;;;;;;;13.25;8.00;;;;;8.60;93.13;101724.94;4995421;28;45308;-78
2022/11/27 07:09:58;;;;;;;;;60.50;50.75;;;;;8.62;92.81;101727.56;4995535;28;45280;-79
2022/11/27 07:12:24;;;;;;;;;23.00;22.50;;;;;8.62;93.69;101728.41;4996088;28;45332;-78
2022/11/27 07:14:49;;;;;;;;;51.75;39.75;;;;;8.62;96.12;101733.72;4995286;28;56084;-79
2022/11/27 07:17:14;;;;;;;;;34.00;27.75;;;;;8.64;95.87;101739.88;4995558;28;45346;-79
2022/11/27 07:19:40;;;;;;;;;8.00;8.00;;;;;8.62;94.38;101731.06;4995848;28;45289;-79
2022/11/27 07:22:05;;;;;;;;;8.25;8.25;;;;;8.52;98.91;101719.03;4996112;28;45350;-79
2022/11/27 07:24:30;;;;;;;;;14.50;9.25;;;;;8.60;100.00;101748.88;4996156;28;45538;-78
2022/11/27 07:26:56;;;;;;;;;16.50;14.75;;;;;8.58;100.00;101737.41;4995365;28;45373;-79
2022/11/27 07:29:21;;;;;;;;;32.75;24.75;;;;;8.48;100.00;101728.91;4995846;28;45427;-78
2022/11/27 07:31:49;;;;;;;;;36.00;32.25;;;;;8.51;100.00;101741.22;4995223;28;45308;-78
2022/11/27 07:34:14;;;;;;;;;45.25;39.00;;;;;8.42;100.00;101729.97;4994623;28;46388;-79
2022/11/27 07:36:40;;;;;;;;;12.50;12.00;;;;;8.43;100.00;101741.44;4994334;28;45448;-79
2022/11/27 07:39:05;;;;;;;;;11.50;10.50;;;;;8.37;100.00;101734.56;4995142;28;47183;-79
2022/11/27 07:41:30;;;;;;;;;20.50;19.25;;;;;8.30;100.00;101735.69;4995347;28;45338;-78
2022/11/27 07:43:56;;;;;;;;;30.75;28.25;;;;;8.27;100.00;101745.56;4994372;28;45375;-78
2022/11/27 07:46:22;;;;;;;;;27.25;26.00;;;;;8.23;100.00;101745.66;4993064;28;46184;-78
2022/11/27 07:48:48;;;;;;;;;16.50;15.00;;;;;8.09;100.00;101748.75;4995074;28;45419;-78
2022/11/27 07:51:16;;;;;;;;;15.50;11.50;;;;;7.69;100.00;101699.59;4994759;28;45541;-78
2022/11/27 07:53:42;;;;;;;;;32.25;28.75;;;;;8.13;100.00;101764.63;4995129;28;46184;-79
2022/11/27 07:56:10;;;;;;;;;13.25;11.50;;;;;7.82;100.00;101710.69;4994536;28;45373;-78
2022/11/27 07:58:36;;;;;;;;;45.75;38.00;;;;;7.85;100.00;101693.78;4995268;28;45400;-79
2022/11/27 08:01:10;;;;;;;;;94.50;81.00;;;;;8.11;100.00;101698.25;4974466;28;45313;-79
2022/11/27 08:03:36;;;;;;;;;63.00;48.00;;;;;8.97;100.00;101779.50;4980390;28;45349;-79
2022/11/27 08:06:01;;;;;;;;;16.25;13.50;;;;;9.08;100.00;101780.00;4976254;28;45369;-79
2022/11/27 08:08:26;;;;;;;;;86.50;61.75;;;;;9.69;100.00;101781.25;4995084;28;45844;-79
2022/11/27 08:10:51;;;;;;;;;90.00;74.00;;;;;9.89;100.00;101752.94;4994862;28;45483;-79
2022/11/27 08:13:17;;;;;;;;;42.75;34.50;;;;;13.62;100.00;101744.09;4995006;28;46295;-78
2022/11/27 08:15:42;;;;;;;;;112.25;95.50;;;;;50.14;100.00;101714.88;4987826;28;45345;-77
2022/11/27 08:18:08;;;;;;;;;209.67;171.67;;;;;26.32;100.00;101707.47;4977557;28;45387;-78
2022/11/27 08:20:33;;;;;;;;;37.75;32.25;;;;;26.21;100.00;101631.22;4993604;28;45554;-78
2022/11/27 08:22:59;;;;;;;;;87.75;69.50;;;;;20.94;100.00;101662.84;4994769;28;46130;-78
2022/11/27 08:25:25;;;;;;;;;25.50;24.00;;;;;18.14;100.00;101700.09;4992860;28;45594;-77
2022/11/27 08:27:50;;;;;;;;;31.75;29.00;;;;;18.40;100.00;101661.25;4989617;28;45429;-75
2022/11/27 08:30:16;;;;;;;;;24.75;24.50;;;;;16.36;100.00;101674.25;4977152;28;45503;-77
2022/11/27 08:32:42;;;;;;;;;18.75;17.00;;;;;14.87;100.00;101682.19;4994471;28;45354;-77
2022/11/27 08:35:08;;;;;;;;;24.50;21.75;;;;;13.74;100.00;101678.16;4994329;28;45355;-80
2022/11/27 08:37:34;;;;;;;;;15.50;15.50;;;;;13.24;100.00;101677.34;4994492;28;45296;-80
2022/11/27 08:40:00;;;;;;;;;17.25;17.00;;;;;12.79;100.00;101688.72;4994668;28;45380;-81
2022/11/27 08:42:25;;;;;;;;;24.00;21.25;;;;;12.78;100.00;101684.31;4994065;28;47036;-80
2022/11/27 08:44:50;;;;;;;;;17.25;17.25;;;;;12.79;100.00;101663.75;4994537;28;45287;-81
2022/11/27 08:47:16;;;;;;;;;21.25;17.25;;;;;12.58;100.00;101671.97;4995748;28;45357;-80
2022/11/27 08:49:42;;;;;;;;;15.00;15.00;;;;;12.63;100.00;101677.06;4998012;28;45296;-80
2022/11/27 08:52:09;;;;;;;;;17.75;14.00;;;;;12.30;100.00;101621.72;4997447;28;46297;-82
2022/11/27 08:54:34;;;;;;;;;17.50;16.50;;;;;12.58;100.00;101665.78;4997415;28;45501;-81
2022/11/27 08:57:00;;;;;;;;;15.00;10.75;;;;;12.45;100.00;101666.41;4979206;28;45347;-80
2022/11/27 08:59:25;;;;;;;;;26.25;21.00;;;;;12.42;100.00;101652.34;4997408;28;45344;-81
2022/11/27 09:01:51;;;;;;;;;20.25;17.50;;;;;12.46;100.00;101645.88;4996572;28;45419;-80
2022/11/27 09:04:16;;;;;;;;;11.00;10.00;;;;;12.38;100.00;101648.09;4997266;28;45481;-80
2022/11/27 09:06:41;;;;;;;;;15.50;14.50;;;;;12.25;100.00;101619.31;4989231;28;45459;-81
2022/11/27 09:09:07;;;;;;;;;12.75;11.50;;;;;12.36;100.00;101618.75;4992062;28;45306;-80
2022/11/27 09:11:33;;;;;;;;;13.50;13.00;;;;;12.35;100.00;101618.78;4994149;28;46466;-79
2022/11/27 09:14:00;;;;;;;;;17.50;14.00;;;;;12.42;100.00;101607.69;4993625;28;45494;-80
2022/11/27 09:16:25;;;;;;;;;12.75;12.75;;;;;12.43;100.00;101621.94;4996538;28;45423;-78
2022/11/27 09:18:53;;;;;;;;;11.50;10.50;;;;;11.93;100.00;101552.28;4996830;28;45414;-81
2022/11/27 09:21:20;;;;;;;;;10.50;9.50;;;;;12.42;100.00;101622.91;4996730;28;47198;-80
2022/11/27 09:23:46;;;;;;;;;11.50;11.50;;;;;12.50;100.00;101617.13;4996879;28;45513;-80
2022/11/27 09:26:15;;;;;;;;;14.50;11.75;;;;;11.95;100.00;101560.25;4979160;28;45393;-80
2022/11/27 09:28:41;;;;;;;;;13.00;10.25;;;;;12.34;100.00;101615.28;4979033;28;45497;-80
2022/11/27 09:31:09;;;;;;;;;13.25;11.00;;;;;12.28;100.00;101604.88;4995650;28;45324;-80
2022/11/27 09:33:37;;;;;;;;;11.25;11.25;;;;;11.64;100.00;101465.59;4996752;28;45467;-80
2022/11/27 09:36:07;;;;;;;;;13.25;10.50;;;;;12.45;100.00;101591.47;4997154;28;45374;-80
2022/11/27 09:38:33;;;;;;;;;14.50;14.00;;;;;12.44;100.00;101586.19;4996761;28;45501;-81
2022/11/27 09:41:10;;;;;;;;;14.50;12.50;;;;;12.55;100.00;101586.50;4996454;28;46011;-81
2022/11/27 09:43:44;;;;;;;;;13.50;11.00;;;;;12.51;100.00;101559.97;4996790;28;45339;-80
2022/11/27 09:46:16;;;;;;;;;13.00;12.00;;;;;12.03;100.00;101479.63;4979733;28;45460;-81
2022/11/27 09:48:46;;;;;;;;;16.50;14.75;;;;;12.54;100.00;101558.00;4996646;28;45408;-80
2022/11/27 09:51:24;;;;;;;;;12.00;10.25;;;;;12.50;100.00;101564.47;4996536;28;45491;-81
2022/11/27 09:54:13;;;;;;;;;15.00;12.00;;;;;12.51;100.00;101565.31;4996739;28;45276;-81
2022/11/27 09:56:41;;;;;;;;;9.50;9.50;;;;;12.48;85.48;101560.16;4996622;28;45243;-82
2022/11/27 09:59:15;;;;;;;;;9.25;9.25;;;;;12.50;81.10;101571.63;4995966;28;45398;-81
2022/11/27 10:01:41;;;;;;;;;14.25;12.50;;;;;12.66;78.29;101575.22;4996428;28;45677;-82
2022/11/27 10:04:11;;;;;;;;;13.50;11.00;;;;;12.46;77.71;101565.59;4996462;28;45363;-81
2022/11/27 10:06:45;;;;;;;;;14.25;11.25;;;;;12.45;76.80;101580.75;4996339;28;45269;-81
2022/11/27 10:09:24;;;;;;;;;9.00;9.00;;;;;12.56;76.63;101590.03;4996920;28;45436;-81
2022/11/27 10:12:02;;;;;;;;;16.00;10.75;;;;;12.54;74.78;101579.41;4996161;28;46590;-82
2022/11/27 10:14:42;;;;;;;;;10.00;10.00;;;;;12.61;75.23;101578.13;4996046;28;45573;-82
2022/11/27 10:17:19;;;;;;;;;13.00;10.50;;;;;12.67;75.05;101571.56;4996844;28;45368;-82
2022/11/27 10:20:02;;;;;;;;;89.75;73.75;;;;;12.51;75.37;101547.47;4979131;28;45400;-82
2022/11/27 10:22:34;;;;;;;;;29.50;22.00;;;;;12.80;74.10;101587.81;4978921;28;45400;-83
2022/11/27 10:25:25;;;;;;;;;10.00;10.00;;;;;12.79;73.98;101583.41;4981227;28;45408;-82
2022/11/27 10:28:01;;;;;;;;;37.25;34.25;;;;;12.82;76.23;101577.03;4999711;28;45344;-82
2022/11/27 10:30:29;;;;;;;;;19.00;17.50;;;;;12.91;76.07;101566.66;4996973;28;45465;-81
2022/11/27 10:32:58;;;;;;;;;74.00;54.25;;;;;12.96;74.48;101569.94;4995767;28;45924;-80
2022/11/27 10:35:31;;;;;;;;;10.00;9.00;;;;;13.13;74.57;101570.81;4995875;28;45581;-80
2022/11/27 10:37:56;;;;;;;;;23.00;17.25;;;;;13.01;73.97;101560.78;4995975;28;45419;-81
2022/11/27 10:40:29;;;;;;;;;72.25;56.50;;;;;13.29;74.69;101549.34;4996013;28;45502;-80
2022/11/27 10:43:27;;;;;;;;;48.50;40.50;;;;;13.36;76.39;101561.50;4995842;28;46279;-80
2022/11/27 10:46:01;;;;;;;;;11.75;11.75;;;;;13.43;73.70;101572.72;4957246;28;46254;-81
2022/11/27 10:48:28;;;;;;;;;13.75;10.50;;;;;13.29;77.21;101563.63;4995788;28;45395;-80
2022/11/27 10:50:54;;;;;;;;;14.00;10.00;;;;;13.28;80.51;101534.22;4978665;28;45685;-81
2022/11/27 10:53:30;;;;;;;;;17.75;15.25;;;;;13.46;81.54;101543.06;4996208;28;46273;-81
2022/11/27 10:56:14;;;;;;;;;23.00;21.25;;;;;13.42;76.55;101539.69;4995464;28;45410;-80
2022/11/27 10:58:45;;;;;;;;;18.25;17.25;;;;;13.27;75.99;101508.41;4996886;28;45636;-81
2022/11/27 11:01:16;;;;;;;;;11.75;11.75;;;;;13.43;73.58;101536.06;4996139;28;45434;-81
2022/11/27 11:03:41;;;;;;;;;10.00;8.75;;;;;13.48;70.46;101526.88;4995967;28;46641;-81
2022/11/27 11:06:25;;;;;;;;;9.25;9.25;;;;;13.62;71.95;101534.97;4996023;28;45376;-81
2022/11/27 11:09:19;;;;;;;;;21.75;20.25;;;;;13.55;72.34;101534.47;4996296;28;45488;-81
2022/11/27 11:11:44;;;;;;;;;35.00;31.50;;;;;13.70;71.82;101526.44;4994996;28;45548;-81
2022/11/27 11:14:28;;;;;;;;;21.00;15.50;;;;;13.73;71.03;101523.59;4978174;28;48728;-81
2022/11/27 11:16:54;;;;;;;;;22.50;19.50;;;;;13.64;70.83;101500.88;4974702;28;45326;-81
2022/11/27 11:19:26;;;;;;;;;21.00;18.50;;;;;13.61;70.93;101498.41;4976524;28;45222;-81
2022/11/27 11:21:52;;;;;;;;;15.00;15.00;;;;;13.53;71.13;101487.28;4976447;28;45543;-82
2022/11/27 11:24:26;;;;;;;;;24.00;23.25;;;;;13.37;70.68;101465.88;4975578;28;46406;-82
2022/11/27 11:26:55;;;;;;;;;16.50;16.50;;;;;13.22;71.31;101465.78;4975840;28;45383;-81